sensor_id;sensor_type;location;lat;lon;timestamp;pressure;altitude;pressure_sealevel;temperature;humidity
17260;BME280;8746;49.230;9.220;2023-06-24T00:00:59;100764.66;;;15.78;100.00
17260;BME280;8746;49.230;9.220;2023-06-24T00:03:24;100760.94;;;15.82;100.00
17260;BME280;8746;49.230;9.220;2023-06-24T00:05:50;100765.84;;;15.90;100.00
17260;BME280;8746;49.230;9.220;2023-06-24T00:08:16;100765.94;;;15.89;100.00
17260;BME280;8746;49.230;9.220;2023-06-24T00:10:45;100770.47;;;15.86;100.00
17260;BME280;8746;49.230;9.220;2023-06-24T00:13:11;100780.66;;;15.96;100.00
17260;BME280;8746;49.230;9.220;2023-06-24T00:15:36;100773.00;;;15.90;100.00
17260;BME280;8746;49.230;9.220;2023-06-24T00:18:02;100775.44;;;15.75;100.00
17260;BME280;8746;49.230;9.220;2023-06-24T00:20:30;100764.88;;;15.74;100.00
17260;BME280;8746;49.230;9.220;2023-06-24T00:22:56;100769.25;;;15.75;100.00
17260;BME280;8746;49.230;9.220;2023-06-24T00:25:21;100767.63;;;15.72;100.00
17260;BME280;8746;49.230;9.220;2023-06-24T00:27:46;100768.38;;;15.74;100.00
17260;BME280;8746;49.230;9.220;2023-06-24T00:30:12;100765.53;;;15.60;100.00
17260;BME280;8746;49.230;9.220;2023-06-24T00:32:37;100767.53;;;15.54;100.00
17260;BME280;8746;49.230;9.220;2023-06-24T00:35:03;100769.50;;;15.51;100.00
17260;BME280;8746;49.230;9.220;2023-06-24T00:37:28;100765.34;;;15.45;100.00
17260;BME280;8746;49.230;9.220;2023-06-24T00:39:54;100765.34;;;15.45;100.00
17260;BME280;8746;49.230;9.220;2023-06-24T00:42:19;100757.91;;;15.33;100.00
17260;BME280;8746;49.230;9.220;2023-06-24T00:44:45;100754.41;;;15.32;100.00
17260;BME280;8746;49.230;9.220;2023-06-24T00:47:10;100761.66;;;15.29;100.00
17260;BME280;8746;49.230;9.220;2023-06-24T00:49:36;100761.53;;;15.13;100.00
17260;BME280;8746;49.230;9.220;2023-06-24T00:52:01;100762.44;;;15.12;100.00
17260;BME280;8746;49.230;9.220;2023-06-24T00:54:27;100763.38;;;15.11;100.00
17260;BME280;8746;49.230;9.220;2023-06-24T00:56:57;100762.66;;;15.07;100.00
17260;BME280;8746;49.230;9.220;2023-06-24T00:59:26;100755.66;;;15.06;100.00
17260;BME280;8746;49.230;9.220;2023-06-24T01:01:54;100765.03;;;15.13;100.00
17260;BME280;8746;49.230;9.220;2023-06-24T01:04:20;100763.81;;;15.01;100.00
17260;BME280;8746;49.230;9.220;2023-06-24T01:06:45;100759.78;;;14.93;100.00
17260;BME280;8746;49.230;9.220;2023-06-24T01:09:12;100766.75;;;14.95;100.00
17260;BME280;8746;49.230;9.220;2023-06-24T01:11:38;100768.41;;;14.98;100.00
17260;BME280;8746;49.230;9.220;2023-06-24T01:14:04;100764.03;;;14.97;100.00
17260;BME280;8746;49.230;9.220;2023-06-24T01:16:49;100769.84;;;15.05;100.00
17260;BME280;8746;49.230;9.220;2023-06-24T01:28:02;100756.47;;;14.87;100.00
17260;BME280;8746;49.230;9.220;2023-06-24T01:33:26;100759.34;;;14.83;100.00
17260;BME280;8746;49.230;9.220;2023-06-24T01:35:56;100753.31;;;14.79;100.00
17260;BME280;8746;49.230;9.220;2023-06-24T01:38:47;100748.13;;;14.76;100.00
17260;BME280;8746;49.230;9.220;2023-06-24T01:41:16;100746.53;;;14.72;100.00
17260;BME280;8746;49.230;9.220;2023-06-24T01:43:44;100755.78;;;14.62;100.00
17260;BME280;8746;49.230;9.220;2023-06-24T01:46:12;100758.41;;;14.42;100.00
17260;BME280;8746;49.230;9.220;2023-06-24T01:48:40;100758.00;;;14.52;100.00
17260;BME280;8746;49.230;9.220;2023-06-24T01:51:10;100757.69;;;14.39;100.00
17260;BME280;8746;49.230;9.220;2023-06-24T01:53:39;100761.06;;;14.42;100.00
17260;BME280;8746;49.230;9.220;2023-06-24T01:56:11;100762.19;;;14.37;100.00
17260;BME280;8746;49.230;9.220;2023-06-24T01:58:39;100754.28;;;14.35;100.00
17260;BME280;8746;49.230;9.220;2023-06-24T02:01:05;100759.19;;;14.45;100.00
17260;BME280;8746;49.230;9.220;2023-06-24T02:03:32;100760.19;;;14.42;100.00
17260;BME280;8746;49.230;9.220;2023-06-24T02:05:59;100764.31;;;14.49;100.00
17260;BME280;8746;49.230;9.220;2023-06-24T02:08:29;100760.72;;;14.50;100.00
17260;BME280;8746;49.230;9.220;2023-06-24T02:10:55;100766.88;;;14.51;100.00
17260;BME280;8746;49.230;9.220;2023-06-24T02:13:23;100752.56;;;14.55;100.00
17260;BME280;8746;49.230;9.220;2023-06-24T02:15:50;100749.03;;;14.54;100.00
17260;BME280;8746;49.230;9.220;2023-06-24T02:18:17;100745.53;;;14.54;100.00
17260;BME280;8746;49.230;9.220;2023-06-24T02:20:43;100753.09;;;14.42;100.00
17260;BME280;8746;49.230;9.220;2023-06-24T02:23:11;100749.75;;;14.37;100.00
17260;BME280;8746;49.230;9.220;2023-06-24T02:25:38;100747.25;;;14.34;100.00
17260;BME280;8746;49.230;9.220;2023-06-24T02:28:05;100739.63;;;14.26;100.00
17260;BME280;8746;49.230;9.220;2023-06-24T02:30:32;100744.00;;;14.27;100.00
17260;BME280;8746;49.230;9.220;2023-06-24T02:32:59;100734.06;;;14.33;100.00
17260;BME280;8746;49.230;9.220;2023-06-24T02:35:24;100736.72;;;14.33;100.00
17260;BME280;8746;49.230;9.220;2023-06-24T02:37:49;100738.22;;;14.38;100.00
17260;BME280;8746;49.230;9.220;2023-06-24T02:40:15;100740.88;;;14.38;100.00
17260;BME280;8746;49.230;9.220;2023-06-24T02:42:40;100739.22;;;14.36;100.00
17260;BME280;8746;49.230;9.220;2023-06-24T02:45:06;100742.06;;;14.31;100.00
17260;BME280;8746;49.230;9.220;2023-06-24T02:47:33;100752.16;;;14.43;100.00
17260;BME280;8746;49.230;9.220;2023-06-24T02:50:00;100746.00;;;14.43;100.00
17260;BME280;8746;49.230;9.220;2023-06-24T02:52:25;100754.47;;;14.31;100.00
17260;BME280;8746;49.230;9.220;2023-06-24T02:54:57;100758.78;;;14.33;100.00
17260;BME280;8746;49.230;9.220;2023-06-24T02:57:23;100754.09;;;14.19;100.00
17260;BME280;8746;49.230;9.220;2023-06-24T02:59:50;100752.47;;;14.15;100.00
17260;BME280;8746;49.230;9.220;2023-06-24T03:02:16;100751.63;;;14.15;100.00
17260;BME280;8746;49.230;9.220;2023-06-24T03:04:41;100756.13;;;14.13;100.00
17260;BME280;8746;49.230;9.220;2023-06-24T03:07:07;100752.00;;;14.05;100.00
17260;BME280;8746;49.230;9.220;2023-06-24T03:09:35;100750.34;;;14.03;100.00
17260;BME280;8746;49.230;9.220;2023-06-24T03:12:00;100753.44;;;13.92;100.00
17260;BME280;8746;49.230;9.220;2023-06-24T03:14:26;100756.81;;;13.95;100.00
17260;BME280;8746;49.230;9.220;2023-06-24T03:16:51;100753.13;;;14.00;100.00
17260;BME280;8746;49.230;9.220;2023-06-24T03:19:16;100759.56;;;13.94;100.00
17260;BME280;8746;49.230;9.220;2023-06-24T03:21:42;100762.03;;;13.99;100.00
17260;BME280;8746;49.230;9.220;2023-06-24T03:24:07;100765.41;;;14.02;100.00
17260;BME280;8746;49.230;9.220;2023-06-24T03:26:37;100759.19;;;14.03;100.00
17260;BME280;8746;49.230;9.220;2023-06-24T03:29:03;100767.06;;;14.05;100.00
17260;BME280;8746;49.230;9.220;2023-06-24T03:31:28;100763.41;;;14.07;100.00
17260;BME280;8746;49.230;9.220;2023-06-24T03:33:54;100768.91;;;14.03;100.00
17260;BME280;8746;49.230;9.220;2023-06-24T03:36:19;100764.41;;;14.05;100.00
17260;BME280;8746;49.230;9.220;2023-06-24T03:38:45;100767.06;;;14.05;100.00
17260;BME280;8746;49.230;9.220;2023-06-24T03:41:10;100766.56;;;14.17;100.00
17260;BME280;8746;49.230;9.220;2023-06-24T03:43:36;100774.63;;;13.93;100.00
17260;BME280;8746;49.230;9.220;2023-06-24T03:46:01;100772.91;;;13.91;100.00
17260;BME280;8746;49.230;9.220;2023-06-24T03:48:27;100776.63;;;13.87;100.00
17260;BME280;8746;49.230;9.220;2023-06-24T03:50:52;100782.75;;;13.89;100.00
17260;BME280;8746;49.230;9.220;2023-06-24T03:53:18;100788.06;;;13.89;100.00
17260;BME280;8746;49.230;9.220;2023-06-24T03:55:43;100788.78;;;13.92;100.00
17260;BME280;8746;49.230;9.220;2023-06-24T03:58:08;100784.41;;;13.91;100.00
17260;BME280;8746;49.230;9.220;2023-06-24T04:00:34;100791.63;;;13.88;100.00
17260;BME280;8746;49.230;9.220;2023-06-24T04:03:01;100793.97;;;13.95;100.00
17260;BME280;8746;49.230;9.220;2023-06-24T04:05:26;100795.63;;;13.98;100.00
17260;BME280;8746;49.230;9.220;2023-06-24T04:07:52;100796.38;;;14.02;100.00
17260;BME280;8746;49.230;9.220;2023-06-24T04:10:18;100791.94;;;14.02;100.00
17260;BME280;8746;49.230;9.220;2023-06-24T04:12:47;100801.38;;;14.09;100.00
17260;BME280;8746;49.230;9.220;2023-06-24T04:15:12;100807.41;;;14.13;100.00
17260;BME280;8746;49.230;9.220;2023-06-24T04:17:38;100806.78;;;14.06;100.00
17260;BME280;8746;49.230;9.220;2023-06-24T04:20:04;100799.88;;;14.24;100.00
17260;BME280;8746;49.230;9.220;2023-06-24T04:22:33;100803.63;;;14.19;100.00
17260;BME280;8746;49.230;9.220;2023-06-24T04:24:58;100799.88;;;14.24;100.00
17260;BME280;8746;49.230;9.220;2023-06-24T04:27:23;100809.84;;;14.18;100.00
17260;BME280;8746;49.230;9.220;2023-06-24T04:29:49;100816.84;;;14.20;100.00
17260;BME280;8746;49.230;9.220;2023-06-24T04:32:14;100820.13;;;14.05;100.00
17260;BME280;8746;49.230;9.220;2023-06-24T04:34:39;100816.34;;;14.10;100.00
17260;BME280;8746;49.230;9.220;2023-06-24T04:37:05;100812.25;;;14.24;100.00
17260;BME280;8746;49.230;9.220;2023-06-24T04:39:30;100813.22;;;14.23;100.00
17260;BME280;8746;49.230;9.220;2023-06-24T04:41:56;100809.38;;;14.30;100.00
17260;BME280;8746;49.230;9.220;2023-06-24T04:44:21;100818.84;;;14.36;100.00
17260;BME280;8746;49.230;9.220;2023-06-24T04:46:46;100818.50;;;14.43;100.00
17260;BME280;8746;49.230;9.220;2023-06-24T04:49:12;100818.94;;;14.55;100.00
17260;BME280;8746;49.230;9.220;2023-06-24T04:51:37;100820.41;;;14.41;100.00
17260;BME280;8746;49.230;9.220;2023-06-24T04:54:03;100829.09;;;14.45;100.00
17260;BME280;8746;49.230;9.220;2023-06-24T04:56:29;100825.09;;;14.55;100.00
17260;BME280;8746;49.230;9.220;2023-06-24T04:58:55;100825.41;;;14.70;100.00
17260;BME280;8746;49.230;9.220;2023-06-24T05:01:21;100832.56;;;14.68;100.00
17260;BME280;8746;49.230;9.220;2023-06-24T05:03:47;100829.13;;;14.86;100.00
17260;BME280;8746;49.230;9.220;2023-06-24T05:06:12;100828.34;;;14.84;100.00
17260;BME280;8746;49.230;9.220;2023-06-24T05:08:37;100824.75;;;14.85;100.00
17260;BME280;8746;49.230;9.220;2023-06-24T05:11:03;100830.25;;;15.01;100.00
17260;BME280;8746;49.230;9.220;2023-06-24T05:13:28;100831.63;;;15.10;100.00
17260;BME280;8746;49.230;9.220;2023-06-24T05:15:54;100825.63;;;15.26;100.00
17260;BME280;8746;49.230;9.220;2023-06-24T05:18:19;100826.50;;;15.45;100.00
17260;BME280;8746;49.230;9.220;2023-06-24T05:20:45;100830.94;;;15.45;100.00
17260;BME280;8746;49.230;9.220;2023-06-24T05:23:10;100828.78;;;15.53;100.00
17260;BME280;8746;49.230;9.220;2023-06-24T05:25:35;100835.56;;;15.60;100.00
17260;BME280;8746;49.230;9.220;2023-06-24T05:28:01;100835.53;;;15.79;100.00
17260;BME280;8746;49.230;9.220;2023-06-24T05:30:26;100832.53;;;15.87;100.00
17260;BME280;8746;49.230;9.220;2023-06-24T05:32:51;100829.44;;;15.77;100.00
17260;BME280;8746;49.230;9.220;2023-06-24T05:35:16;100828.06;;;15.88;100.00
17260;BME280;8746;49.230;9.220;2023-06-24T05:37:42;100826.22;;;15.90;100.00
17260;BME280;8746;49.230;9.220;2023-06-24T05:40:07;100830.78;;;16.05;99.89
17260;BME280;8746;49.230;9.220;2023-06-24T05:42:34;100827.28;;;16.22;99.02
17260;BME280;8746;49.230;9.220;2023-06-24T05:44:59;100836.53;;;16.32;97.87
17260;BME280;8746;49.230;9.220;2023-06-24T05:47:25;100834.66;;;16.52;97.31
17260;BME280;8746;49.230;9.220;2023-06-24T05:49:50;100832.41;;;16.44;96.46
17260;BME280;8746;49.230;9.220;2023-06-24T05:52:16;100837.03;;;16.58;95.98
17260;BME280;8746;49.230;9.220;2023-06-24T05:54:41;100831.47;;;16.63;94.97
17260;BME280;8746;49.230;9.220;2023-06-24T05:57:06;100839.53;;;16.61;95.59
17260;BME280;8746;49.230;9.220;2023-06-24T05:59:33;100838.25;;;16.69;95.02
17260;BME280;8746;49.230;9.220;2023-06-24T06:01:58;100836.78;;;16.63;96.27
17260;BME280;8746;49.230;9.220;2023-06-24T06:04:23;100836.47;;;16.69;95.12
17260;BME280;8746;49.230;9.220;2023-06-24T06:06:49;100828.44;;;16.87;94.24
17260;BME280;8746;49.230;9.220;2023-06-24T06:09:14;100838.72;;;17.12;93.92
17260;BME280;8746;49.230;9.220;2023-06-24T06:11:39;100835.25;;;17.27;91.05
17260;BME280;8746;49.230;9.220;2023-06-24T06:14:05;100834.28;;;17.44;89.52
17260;BME280;8746;49.230;9.220;2023-06-24T06:16:30;100841.44;;;17.44;89.28
17260;BME280;8746;49.230;9.220;2023-06-24T06:18:56;100831.66;;;17.60;89.51
17260;BME280;8746;49.230;9.220;2023-06-24T06:21:21;100834.34;;;17.60;89.46
17260;BME280;8746;49.230;9.220;2023-06-24T06:23:46;100832.41;;;17.78;89.05
17260;BME280;8746;49.230;9.220;2023-06-24T06:26:12;100823.81;;;17.89;86.42
17260;BME280;8746;49.230;9.220;2023-06-24T06:28:37;100842.50;;;17.73;87.62
17260;BME280;8746;49.230;9.220;2023-06-24T06:31:02;100834.06;;;17.97;85.80
17260;BME280;8746;49.230;9.220;2023-06-24T06:33:28;100829.78;;;17.94;83.73
17260;BME280;8746;49.230;9.220;2023-06-24T06:35:53;100830.09;;;18.04;84.68
17260;BME280;8746;49.230;9.220;2023-06-24T06:38:19;100823.31;;;17.99;83.93
17260;BME280;8746;49.230;9.220;2023-06-24T06:40:44;100814.16;;;18.19;82.88
17260;BME280;8746;49.230;9.220;2023-06-24T06:43:09;100806.03;;;18.20;81.65
17260;BME280;8746;49.230;9.220;2023-06-24T06:45:34;100819.69;;;18.16;81.81
17260;BME280;8746;49.230;9.220;2023-06-24T06:48:00;100803.25;;;18.38;81.87
17260;BME280;8746;49.230;9.220;2023-06-24T06:50:25;100805.88;;;18.54;81.05
17260;BME280;8746;49.230;9.220;2023-06-24T06:52:50;100808.47;;;18.70;80.33
17260;BME280;8746;49.230;9.220;2023-06-24T06:55:18;100803.19;;;18.99;80.16
17260;BME280;8746;49.230;9.220;2023-06-24T06:57:43;100804.72;;;19.03;79.89
17260;BME280;8746;49.230;9.220;2023-06-24T07:00:09;100810.19;;;19.16;77.92
17260;BME280;8746;49.230;9.220;2023-06-24T07:02:35;100806.22;;;19.07;76.79
17260;BME280;8746;49.230;9.220;2023-06-24T07:05:00;100798.13;;;19.09;76.81
17260;BME280;8746;49.230;9.220;2023-06-24T07:07:26;100802.31;;;19.27;78.26
17260;BME280;8746;49.230;9.220;2023-06-24T07:09:51;100796.38;;;19.36;75.97
17260;BME280;8746;49.230;9.220;2023-06-24T07:12:17;100797.69;;;19.44;75.71
17260;BME280;8746;49.230;9.220;2023-06-24T07:14:43;100795.13;;;19.57;75.07
17260;BME280;8746;49.230;9.220;2023-06-24T07:17:08;100796.50;;;19.62;71.98
17260;BME280;8746;49.230;9.220;2023-06-24T07:19:33;100803.38;;;19.81;72.99
17260;BME280;8746;49.230;9.220;2023-06-24T07:21:59;100792.56;;;19.82;71.72
17260;BME280;8746;49.230;9.220;2023-06-24T07:24:24;100790.25;;;20.18;70.07
17260;BME280;8746;49.230;9.220;2023-06-24T07:26:50;100785.84;;;20.17;69.19
17260;BME280;8746;49.230;9.220;2023-06-24T07:29:15;100784.47;;;20.24;69.34
17260;BME280;8746;49.230;9.220;2023-06-24T07:31:41;100790.03;;;20.21;68.87
17260;BME280;8746;49.230;9.220;2023-06-24T07:34:06;100789.06;;;20.22;68.07
17260;BME280;8746;49.230;9.220;2023-06-24T07:36:31;100793.63;;;20.34;67.39
17260;BME280;8746;49.230;9.220;2023-06-24T07:38:57;100789.97;;;20.48;67.29
17260;BME280;8746;49.230;9.220;2023-06-24T07:41:22;100789.91;;;20.63;65.70
17260;BME280;8746;49.230;9.220;2023-06-24T07:43:47;100793.78;;;20.85;65.96
17260;BME280;8746;49.230;9.220;2023-06-24T07:46:13;100796.81;;;20.80;64.88
17260;BME280;8746;49.230;9.220;2023-06-24T07:48:38;100802.91;;;20.82;64.83
17260;BME280;8746;49.230;9.220;2023-06-24T07:51:03;100791.72;;;20.88;63.98
17260;BME280;8746;49.230;9.220;2023-06-24T07:53:29;100789.81;;;21.03;63.84
17260;BME280;8746;49.230;9.220;2023-06-24T07:55:54;100785.31;;;21.04;63.82
17260;BME280;8746;49.230;9.220;2023-06-24T07:58:19;100791.41;;;21.06;62.69
17260;BME280;8746;49.230;9.220;2023-06-24T08:00:45;100783.97;;;21.22;62.07
17260;BME280;8746;49.230;9.220;2023-06-24T08:03:12;100784.19;;;21.32;62.07
17260;BME280;8746;49.230;9.220;2023-06-24T08:05:37;100784.28;;;21.43;59.41
17260;BME280;8746;49.230;9.220;2023-06-24T08:08:04;100788.47;;;21.35;60.99
17260;BME280;8746;49.230;9.220;2023-06-24T08:10:30;100782.63;;;21.41;61.62
17260;BME280;8746;49.230;9.220;2023-06-24T08:12:55;100780.16;;;21.64;60.98
17260;BME280;8746;49.230;9.220;2023-06-24T08:15:20;100771.75;;;21.92;58.96
17260;BME280;8746;49.230;9.220;2023-06-24T08:17:53;100775.78;;;22.22;59.76
17260;BME280;8746;49.230;9.220;2023-06-24T08:20:20;100776.69;;;22.34;58.78
17260;BME280;8746;49.230;9.220;2023-06-24T08:22:45;100774.53;;;22.39;56.06
17260;BME280;8746;49.230;9.220;2023-06-24T08:25:11;100771.44;;;22.33;55.34
17260;BME280;8746;49.230;9.220;2023-06-24T08:27:36;100771.53;;;22.31;55.51
17260;BME280;8746;49.230;9.220;2023-06-24T08:30:04;100766.59;;;22.38;54.80
17260;BME280;8746;49.230;9.220;2023-06-24T08:32:30;100766.31;;;22.41;52.52
17260;BME280;8746;49.230;9.220;2023-06-24T08:34:55;100769.06;;;22.52;53.19
17260;BME280;8746;49.230;9.220;2023-06-24T08:37:20;100766.47;;;22.51;53.03
17260;BME280;8746;49.230;9.220;2023-06-24T08:39:46;100767.50;;;22.72;51.47
17260;BME280;8746;49.230;9.220;2023-06-24T08:42:11;100758.31;;;22.64;51.03
17260;BME280;8746;49.230;9.220;2023-06-24T08:44:36;100770.75;;;22.53;52.37
17260;BME280;8746;49.230;9.220;2023-06-24T08:47:02;100760.16;;;22.75;53.09
17260;BME280;8746;49.230;9.220;2023-06-24T08:49:30;100766.50;;;22.96;53.02
17260;BME280;8746;49.230;9.220;2023-06-24T08:52:08;100763.22;;;23.04;51.65
17260;BME280;8746;49.230;9.220;2023-06-24T08:54:38;100770.00;;;23.21;50.89
17260;BME280;8746;49.230;9.220;2023-06-24T08:57:04;100768.72;;;23.36;51.41
17260;BME280;8746;49.230;9.220;2023-06-24T08:59:36;100768.00;;;23.46;51.41
17260;BME280;8746;49.230;9.220;2023-06-24T09:02:02;100764.81;;;23.41;48.31
17260;BME280;8746;49.230;9.220;2023-06-24T09:04:28;100759.88;;;23.57;48.78
17260;BME280;8746;49.230;9.220;2023-06-24T09:06:53;100758.84;;;23.69;49.08
17260;BME280;8746;49.230;9.220;2023-06-24T09:09:19;100764.94;;;23.39;48.27
17260;BME280;8746;49.230;9.220;2023-06-24T09:11:56;100763.72;;;23.20;48.27
17260;BME280;8746;49.230;9.220;2023-06-24T09:14:26;100758.06;;;23.46;48.65
17260;BME280;8746;49.230;9.220;2023-06-24T09:16:59;100752.97;;;23.76;45.96
17260;BME280;8746;49.230;9.220;2023-06-24T09:19:28;100744.28;;;23.72;47.24
17260;BME280;8746;49.230;9.220;2023-06-24T09:22:04;100741.38;;;24.08;46.46
17260;BME280;8746;49.230;9.220;2023-06-24T09:24:30;100744.13;;;24.39;44.17
17260;BME280;8746;49.230;9.220;2023-06-24T09:26:56;100753.41;;;24.46;44.59
17260;BME280;8746;49.230;9.220;2023-06-24T09:29:29;100740.63;;;24.27;45.28
17260;BME280;8746;49.230;9.220;2023-06-24T09:31:56;100743.47;;;24.46;45.10
17260;BME280;8746;49.230;9.220;2023-06-24T09:34:23;100736.69;;;24.52;45.15
17260;BME280;8746;49.230;9.220;2023-06-24T09:36:53;100731.25;;;24.21;45.13
17260;BME280;8746;49.230;9.220;2023-06-24T09:39:20;100733.41;;;24.48;44.53
17260;BME280;8746;49.230;9.220;2023-06-24T09:41:50;100733.94;;;24.42;45.50
17260;BME280;8746;49.230;9.220;2023-06-24T09:44:18;100725.38;;;24.89;45.82
17260;BME280;8746;49.230;9.220;2023-06-24T09:46:46;100732.19;;;25.24;46.11
17260;BME280;8746;49.230;9.220;2023-06-24T09:49:12;100727.19;;;25.20;43.30
17260;BME280;8746;49.230;9.220;2023-06-24T09:51:39;100723.59;;;25.40;44.50
17260;BME280;8746;49.230;9.220;2023-06-24T09:54:10;100721.38;;;25.15;43.15
17260;BME280;8746;49.230;9.220;2023-06-24T09:56:38;100712.22;;;25.47;43.68
17260;BME280;8746;49.230;9.220;2023-06-24T09:59:05;100717.63;;;25.47;42.57
17260;BME280;8746;49.230;9.220;2023-06-24T10:01:36;100721.25;;;25.26;43.25
17260;BME280;8746;49.230;9.220;2023-06-24T10:04:04;100710.81;;;25.52;43.20
17260;BME280;8746;49.230;9.220;2023-06-24T10:06:31;100706.00;;;25.75;42.59
17260;BME280;8746;49.230;9.220;2023-06-24T10:08:58;100706.56;;;25.59;41.87
17260;BME280;8746;49.230;9.220;2023-06-24T10:11:23;100701.06;;;26.48;41.54
17260;BME280;8746;49.230;9.220;2023-06-24T10:13:49;100695.31;;;26.13;39.91
17260;BME280;8746;49.230;9.220;2023-06-24T10:16:15;100692.56;;;26.33;40.54
17260;BME280;8746;49.230;9.220;2023-06-24T10:18:43;100694.38;;;27.17;39.39
17260;BME280;8746;49.230;9.220;2023-06-24T10:21:10;100689.56;;;27.57;38.85
17260;BME280;8746;49.230;9.220;2023-06-24T10:26:26;100683.44;;;27.55;38.60
17260;BME280;8746;49.230;9.220;2023-06-24T10:34:29;100669.78;;;27.83;36.53
17260;BME280;8746;49.230;9.220;2023-06-24T10:37:09;100666.97;;;27.66;36.98
17260;BME280;8746;49.230;9.220;2023-06-24T10:39:47;100656.78;;;27.87;38.27
17260;BME280;8746;49.230;9.220;2023-06-24T10:44:51;100657.38;;;28.77;34.84
17260;BME280;8746;49.230;9.220;2023-06-24T10:47:21;100656.22;;;28.80;34.55
17260;BME280;8746;49.230;9.220;2023-06-24T10:49:47;100662.06;;;28.67;34.76
17260;BME280;8746;49.230;9.220;2023-06-24T10:52:12;100662.00;;;28.24;34.66
17260;BME280;8746;49.230;9.220;2023-06-24T10:54:39;100652.25;;;28.40;35.55
17260;BME280;8746;49.230;9.220;2023-06-24T10:57:06;100661.94;;;28.77;33.95
17260;BME280;8746;49.230;9.220;2023-06-24T10:59:34;100651.63;;;28.54;32.37
17260;BME280;8746;49.230;9.220;2023-06-24T11:02:00;100642.81;;;28.52;34.81
17260;BME280;8746;49.230;9.220;2023-06-24T11:04:26;100640.06;;;28.44;34.93
17260;BME280;8746;49.230;9.220;2023-06-24T11:06:58;100635.16;;;29.41;34.05
17260;BME280;8746;49.230;9.220;2023-06-24T11:09:24;100629.22;;;29.79;32.78
17260;BME280;8746;49.230;9.220;2023-06-24T11:11:49;100626.00;;;29.67;32.42
17260;BME280;8746;49.230;9.220;2023-06-24T11:14:20;100637.56;;;28.51;32.93
17260;BME280;8746;49.230;9.220;2023-06-24T11:16:45;100631.50;;;28.30;32.99
17260;BME280;8746;49.230;9.220;2023-06-24T11:19:11;100625.03;;;28.92;32.61
17260;BME280;8746;49.230;9.220;2023-06-24T11:21:36;100621.75;;;29.40;31.81
17260;BME280;8746;49.230;9.220;2023-06-24T11:24:02;100614.75;;;29.37;32.91
17260;BME280;8746;49.230;9.220;2023-06-24T11:26:28;100614.25;;;29.83;31.89
17260;BME280;8746;49.230;9.220;2023-06-24T11:28:53;100611.88;;;30.61;31.73
17260;BME280;8746;49.230;9.220;2023-06-24T11:31:19;100612.22;;;30.98;31.25
17260;BME280;8746;49.230;9.220;2023-06-24T11:33:50;100609.09;;;31.32;30.30
17260;BME280;8746;49.230;9.220;2023-06-24T11:36:19;100613.56;;;29.81;32.39
17260;BME280;8746;49.230;9.220;2023-06-24T11:38:48;100605.00;;;29.02;32.77
17260;BME280;8746;49.230;9.220;2023-06-24T11:41:14;100610.16;;;29.87;33.64
17260;BME280;8746;49.230;9.220;2023-06-24T11:43:46;100606.94;;;30.65;31.07
17260;BME280;8746;49.230;9.220;2023-06-24T11:46:21;100607.81;;;30.89;30.50
17260;BME280;8746;49.230;9.220;2023-06-24T11:48:46;100596.41;;;31.25;29.25
17260;BME280;8746;49.230;9.220;2023-06-24T11:51:13;100600.47;;;31.67;28.66
17260;BME280;8746;49.230;9.220;2023-06-24T11:53:42;100594.03;;;31.83;28.61
17260;BME280;8746;49.230;9.220;2023-06-24T11:56:08;100598.91;;;31.49;28.88
17260;BME280;8746;49.230;9.220;2023-06-24T11:58:34;100589.81;;;31.57;28.62
17260;BME280;8746;49.230;9.220;2023-06-24T12:01:03;100587.84;;;32.49;27.08
17260;BME280;8746;49.230;9.220;2023-06-24T12:03:29;100583.41;;;32.63;25.19
17260;BME280;8746;49.230;9.220;2023-06-24T12:05:57;100583.22;;;32.65;26.38
17260;BME280;8746;49.230;9.220;2023-06-24T12:08:22;100569.16;;;33.04;23.85
17260;BME280;8746;49.230;9.220;2023-06-24T12:10:48;100567.50;;;33.47;25.10
17260;BME280;8746;49.230;9.220;2023-06-24T12:13:14;100568.53;;;33.02;26.41
17260;BME280;8746;49.230;9.220;2023-06-24T12:15:40;100574.50;;;32.91;26.47
17260;BME280;8746;49.230;9.220;2023-06-24T12:18:05;100565.84;;;32.72;26.02
17260;BME280;8746;49.230;9.220;2023-06-24T12:20:31;100560.34;;;34.02;25.29
17260;BME280;8746;49.230;9.220;2023-06-24T12:22:57;100565.91;;;32.12;27.57
17260;BME280;8746;49.230;9.220;2023-06-24T12:25:23;100550.69;;;32.70;26.91
17260;BME280;8746;49.230;9.220;2023-06-24T12:27:49;100554.50;;;32.54;26.27
17260;BME280;8746;49.230;9.220;2023-06-24T12:30:14;100557.06;;;32.40;27.40
17260;BME280;8746;49.230;9.220;2023-06-24T12:32:41;100555.06;;;32.79;26.73
17260;BME280;8746;49.230;9.220;2023-06-24T12:35:07;100544.72;;;33.39;25.73
17260;BME280;8746;49.230;9.220;2023-06-24T12:37:36;100550.25;;;34.45;24.67
17260;BME280;8746;49.230;9.220;2023-06-24T12:40:05;100546.47;;;33.04;25.75
17260;BME280;8746;49.230;9.220;2023-06-24T12:42:30;100554.25;;;32.49;24.88
17260;BME280;8746;49.230;9.220;2023-06-24T12:44:56;100544.81;;;34.58;25.24
17260;BME280;8746;49.230;9.220;2023-06-24T12:47:21;100538.69;;;33.51;23.92
17260;BME280;8746;49.230;9.220;2023-06-24T12:49:47;100537.06;;;34.69;24.04
17260;BME280;8746;49.230;9.220;2023-06-24T12:52:13;100532.50;;;35.16;23.91
17260;BME280;8746;49.230;9.220;2023-06-24T12:54:38;100533.56;;;34.95;23.36
17260;BME280;8746;49.230;9.220;2023-06-24T12:57:04;100534.25;;;34.07;25.16
17260;BME280;8746;49.230;9.220;2023-06-24T12:59:30;100525.16;;;33.99;24.70
17260;BME280;8746;49.230;9.220;2023-06-24T13:01:55;100530.50;;;32.49;26.21
17260;BME280;8746;49.230;9.220;2023-06-24T13:04:20;100529.50;;;32.35;25.75
17260;BME280;8746;49.230;9.220;2023-06-24T13:06:48;100521.19;;;34.50;23.92
17260;BME280;8746;49.230;9.220;2023-06-24T13:09:14;100521.78;;;35.35;23.14
17260;BME280;8746;49.230;9.220;2023-06-24T13:11:39;100513.81;;;36.64;20.97
17260;BME280;8746;49.230;9.220;2023-06-24T13:14:05;100521.88;;;36.14;22.10